sensor_id;sensor_type;location;lat;lon;timestamp;temperature;humidity
69162;DHT22;56269;51.738;21.652;2023-08-17T00:01:07;21.20;93.80
69162;DHT22;56269;51.738;21.652;2023-08-17T00:03:35;21.21;94.27
69162;DHT22;56269;51.738;21.652;2023-08-17T00:06:01;21.24;95.32
69162;DHT22;56269;51.738;21.652;2023-08-17T00:08:27;21.26;92.21
69162;DHT22;56269;51.738;21.652;2023-08-17T00:10:53;21.28;96.05
69162;DHT22;56269;51.738;21.652;2023-08-17T00:13:20;21.20;94.65
69162;DHT22;56269;51.738;21.652;2023-08-17T00:15:46;21.17;93.52
69162;DHT22;56269;51.738;21.652;2023-08-17T00:18:12;21.17;93.03
69162;DHT22;56269;51.738;21.652;2023-08-17T00:20:38;21.20;93.38
69162;DHT22;56269;51.738;21.652;2023-08-17T00:23:04;21.21;92.77
69162;DHT22;56269;51.738;21.652;2023-08-17T00:25:30;21.27;92.63
69162;DHT22;56269;51.738;21.652;2023-08-17T00:27:57;21.34;92.71
69162;DHT22;56269;51.738;21.652;2023-08-17T00:30:23;21.30;93.65
69162;DHT22;56269;51.738;21.652;2023-08-17T00:32:49;21.28;92.89
69162;DHT22;56269;51.738;21.652;2023-08-17T00:35:18;21.28;93.51
69162;DHT22;56269;51.738;21.652;2023-08-17T00:37:44;21.27;92.81
69162;DHT22;56269;51.738;21.652;2023-08-17T00:40:10;21.20;93.27
69162;DHT22;56269;51.738;21.652;2023-08-17T00:42:37;21.19;93.91
69162;DHT22;56269;51.738;21.652;2023-08-17T00:45:03;21.13;93.82
69162;DHT22;56269;51.738;21.652;2023-08-17T00:47:29;21.04;94.29
69162;DHT22;56269;51.738;21.652;2023-08-17T00:49:56;20.96;94.31
69162;DHT22;56269;51.738;21.652;2023-08-17T00:52:23;20.92;94.84
69162;DHT22;56269;51.738;21.652;2023-08-17T00:54:49;20.92;94.98
69162;DHT22;56269;51.738;21.652;2023-08-17T00:57:19;20.83;95.29
69162;DHT22;56269;51.738;21.652;2023-08-17T00:59:46;20.76;94.25
69162;DHT22;56269;51.738;21.652;2023-08-17T01:02:12;20.87;93.95
69162;DHT22;56269;51.738;21.652;2023-08-17T01:04:39;21.06;91.92
69162;DHT22;56269;51.738;21.652;2023-08-17T01:07:05;21.10;92.65
69162;DHT22;56269;51.738;21.652;2023-08-17T01:09:31;21.04;94.19
69162;DHT22;56269;51.738;21.652;2023-08-17T01:12:13;20.93;94.18
69162;DHT22;56269;51.738;21.652;2023-08-17T01:17:26;21.13;91.78
69162;DHT22;56269;51.738;21.652;2023-08-17T01:19:56;21.19;92.01
69162;DHT22;56269;51.738;21.652;2023-08-17T01:22:24;21.41;89.80
69162;DHT22;56269;51.738;21.652;2023-08-17T01:24:55;21.48;89.54
69162;DHT22;56269;51.738;21.652;2023-08-17T01:27:24;21.42;90.85
69162;DHT22;56269;51.738;21.652;2023-08-17T01:29:51;21.41;90.16
69162;DHT22;56269;51.738;21.652;2023-08-17T01:32:37;21.41;90.72
69162;DHT22;56269;51.738;21.652;2023-08-17T01:35:13;21.34;91.02
69162;DHT22;56269;51.738;21.652;2023-08-17T01:37:43;21.35;90.89
69162;DHT22;56269;51.738;21.652;2023-08-17T01:40:12;21.55;89.79
69162;DHT22;56269;51.738;21.652;2023-08-17T01:42:41;21.51;90.00
69162;DHT22;56269;51.738;21.652;2023-08-17T01:45:07;21.47;89.23
69162;DHT22;56269;51.738;21.652;2023-08-17T01:47:35;21.45;89.31
69162;DHT22;56269;51.738;21.652;2023-08-17T01:50:01;21.42;89.02
69162;DHT22;56269;51.738;21.652;2023-08-17T01:52:28;21.55;88.36
69162;DHT22;56269;51.738;21.652;2023-08-17T01:54:54;21.69;87.99
69162;DHT22;56269;51.738;21.652;2023-08-17T01:57:23;21.77;87.78
69162;DHT22;56269;51.738;21.652;2023-08-17T01:59:49;21.77;88.31
69162;DHT22;56269;51.738;21.652;2023-08-17T02:02:15;21.84;87.53
69162;DHT22;56269;51.738;21.652;2023-08-17T02:04:42;22.06;85.88
69162;DHT22;56269;51.738;21.652;2023-08-17T02:07:09;22.08;85.69
69162;DHT22;56269;51.738;21.652;2023-08-17T02:09:35;22.22;84.72
69162;DHT22;56269;51.738;21.652;2023-08-17T02:12:01;22.26;84.83
69162;DHT22;56269;51.738;21.652;2023-08-17T02:14:27;22.26;84.72
69162;DHT22;56269;51.738;21.652;2023-08-17T02:16:53;22.19;85.19
69162;DHT22;56269;51.738;21.652;2023-08-17T02:19:19;22.06;86.01
69162;DHT22;56269;51.738;21.652;2023-08-17T02:21:46;22.06;85.38
69162;DHT22;56269;51.738;21.652;2023-08-17T02:24:12;22.03;86.41
69162;DHT22;56269;51.738;21.652;2023-08-17T02:26:38;21.93;86.39
69162;DHT22;56269;51.738;21.652;2023-08-17T02:29:05;21.91;86.95
69162;DHT22;56269;51.738;21.652;2023-08-17T02:31:32;21.84;87.08
69162;DHT22;56269;51.738;21.652;2023-08-17T02:33:57;21.71;87.29
69162;DHT22;56269;51.738;21.652;2023-08-17T02:36:27;21.64;87.63
69162;DHT22;56269;51.738;21.652;2023-08-17T02:38:53;21.54;88.31
69162;DHT22;56269;51.738;21.652;2023-08-17T02:41:19;21.55;88.36
69162;DHT22;56269;51.738;21.652;2023-08-17T02:43:45;21.52;87.98
69162;DHT22;56269;51.738;21.652;2023-08-17T02:46:11;21.51;88.44
69162;DHT22;56269;51.738;21.652;2023-08-17T02:48:37;21.54;87.88
69162;DHT22;56269;51.738;21.652;2023-08-17T02:51:03;21.62;88.01
69162;DHT22;56269;51.738;21.652;2023-08-17T02:53:29;21.72;87.48
69162;DHT22;56269;51.738;21.652;2023-08-17T02:55:56;21.71;87.88
69162;DHT22;56269;51.738;21.652;2023-08-17T02:58:22;21.75;87.26
69162;DHT22;56269;51.738;21.652;2023-08-17T03:00:51;21.64;88.70
69162;DHT22;56269;51.738;21.652;2023-08-17T03:03:17;21.71;87.66
69162;DHT22;56269;51.738;21.652;2023-08-17T03:05:43;21.65;88.04
69162;DHT22;56269;51.738;21.652;2023-08-17T03:08:09;21.48;88.56
69162;DHT22;56269;51.738;21.652;2023-08-17T03:10:36;21.38;89.35
69162;DHT22;56269;51.738;21.652;2023-08-17T03:13:03;21.27;90.01
69162;DHT22;56269;51.738;21.652;2023-08-17T03:15:29;21.14;90.84
69162;DHT22;56269;51.738;21.652;2023-08-17T03:17:55;21.10;90.45
69162;DHT22;56269;51.738;21.652;2023-08-17T03:20:22;21.03;91.57
69162;DHT22;56269;51.738;21.652;2023-08-17T03:22:48;21.00;91.16
69162;DHT22;56269;51.738;21.652;2023-08-17T03:25:14;21.00;91.04
69162;DHT22;56269;51.738;21.652;2023-08-17T03:27:40;20.90;91.45
69162;DHT22;56269;51.738;21.652;2023-08-17T03:30:06;20.86;91.49
69162;DHT22;56269;51.738;21.652;2023-08-17T03:32:33;20.84;91.64
69162;DHT22;56269;51.738;21.652;2023-08-17T03:34:59;20.83;90.99
69162;DHT22;56269;51.738;21.652;2023-08-17T03:37:25;20.94;91.03
69162;DHT22;56269;51.738;21.652;2023-08-17T03:39:51;21.20;89.55
69162;DHT22;56269;51.738;21.652;2023-08-17T03:42:17;21.34;89.46
69162;DHT22;56269;51.738;21.652;2023-08-17T03:44:43;21.50;88.48
69162;DHT22;56269;51.738;21.652;2023-08-17T03:47:09;21.77;87.08
69162;DHT22;56269;51.738;21.652;2023-08-17T03:49:35;21.85;87.30
69162;DHT22;56269;51.738;21.652;2023-08-17T03:52:01;21.99;86.85
69162;DHT22;56269;51.738;21.652;2023-08-17T03:54:28;22.12;86.33
69162;DHT22;56269;51.738;21.652;2023-08-17T03:56:54;22.12;86.41
69162;DHT22;56269;51.738;21.652;2023-08-17T03:59:20;22.30;85.67
69162;DHT22;56269;51.738;21.652;2023-08-17T04:01:46;22.42;85.78
69162;DHT22;56269;51.738;21.652;2023-08-17T04:04:12;22.52;85.06
69162;DHT22;56269;51.738;21.652;2023-08-17T04:06:38;22.52;85.54
69162;DHT22;56269;51.738;21.652;2023-08-17T04:09:08;22.60;85.37
69162;DHT22;56269;51.738;21.652;2023-08-17T04:11:35;22.56;85.71
69162;DHT22;56269;51.738;21.652;2023-08-17T04:14:03;22.57;85.99
69162;DHT22;56269;51.738;21.652;2023-08-17T04:16:29;22.54;86.23
69162;DHT22;56269;51.738;21.652;2023-08-17T04:18:57;22.63;85.60
69162;DHT22;56269;51.738;21.652;2023-08-17T04:21:23;22.68;85.78
69162;DHT22;56269;51.738;21.652;2023-08-17T04:23:49;22.73;85.35
69162;DHT22;56269;51.738;21.652;2023-08-17T04:26:15;22.73;85.96
69162;DHT22;56269;51.738;21.652;2023-08-17T04:28:41;22.76;85.72
69162;DHT22;56269;51.738;21.652;2023-08-17T04:31:07;22.86;85.73
69162;DHT22;56269;51.738;21.652;2023-08-17T04:33:33;22.87;85.88
69162;DHT22;56269;51.738;21.652;2023-08-17T04:35:59;22.97;84.96
69162;DHT22;56269;51.738;21.652;2023-08-17T04:38:28;23.03;84.91
69162;DHT22;56269;51.738;21.652;2023-08-17T04:40:54;23.11;85.18
69162;DHT22;56269;51.738;21.652;2023-08-17T04:43:20;23.15;85.33
69162;DHT22;56269;51.738;21.652;2023-08-17T04:45:46;23.21;85.59
69162;DHT22;56269;51.738;21.652;2023-08-17T04:48:13;23.31;85.12
69162;DHT22;56269;51.738;21.652;2023-08-17T04:50:39;23.38;84.59
69162;DHT22;56269;51.738;21.652;2023-08-17T04:53:06;23.44;85.46
69162;DHT22;56269;51.738;21.652;2023-08-17T04:55:33;23.52;84.38
69162;DHT22;56269;51.738;21.652;2023-08-17T04:58:00;23.66;85.03
69162;DHT22;56269;51.738;21.652;2023-08-17T05:00:26;23.73;83.97
69162;DHT22;56269;51.738;21.652;2023-08-17T05:02:55;23.79;83.75
69162;DHT22;56269;51.738;21.652;2023-08-17T05:05:21;23.95;83.65
69162;DHT22;56269;51.738;21.652;2023-08-17T05:07:47;23.99;84.25
69162;DHT22;56269;51.738;21.652;2023-08-17T05:10:14;23.96;83.77
69162;DHT22;56269;51.738;21.652;2023-08-17T05:12:40;24.03;84.84
69162;DHT22;56269;51.738;21.652;2023-08-17T05:15:06;24.07;83.98
69162;DHT22;56269;51.738;21.652;2023-08-17T05:17:33;24.14;83.12
69162;DHT22;56269;51.738;21.652;2023-08-17T05:19:59;24.09;84.19
69162;DHT22;56269;51.738;21.652;2023-08-17T05:22:27;24.09;82.93
69162;DHT22;56269;51.738;21.652;2023-08-17T05:24:53;24.06;82.69
69162;DHT22;56269;51.738;21.652;2023-08-17T05:27:19;24.09;83.42
69162;DHT22;56269;51.738;21.652;2023-08-17T05:29:45;24.10;83.66
69162;DHT22;56269;51.738;21.652;2023-08-17T05:32:14;24.17;82.07
69162;DHT22;56269;51.738;21.652;2023-08-17T05:34:42;24.27;82.13
69162;DHT22;56269;51.738;21.652;2023-08-17T05:37:08;24.47;82.71
69162;DHT22;56269;51.738;21.652;2023-08-17T05:39:34;24.65;81.45
69162;DHT22;56269;51.738;21.652;2023-08-17T05:42:01;24.74;80.27
69162;DHT22;56269;51.738;21.652;2023-08-17T05:44:27;24.85;80.31
69162;DHT22;56269;51.738;21.652;2023-08-17T05:46:53;24.94;80.48
69162;DHT22;56269;51.738;21.652;2023-08-17T05:49:19;25.05;81.45
69162;DHT22;56269;51.738;21.652;2023-08-17T05:51:46;25.07;79.76
69162;DHT22;56269;51.738;21.652;2023-08-17T05:54:12;25.14;79.93
69162;DHT22;56269;51.738;21.652;2023-08-17T05:56:38;25.28;80.32
69162;DHT22;56269;51.738;21.652;2023-08-17T05:59:10;25.47;79.08
69162;DHT22;56269;51.738;21.652;2023-08-17T06:01:40;25.74;78.47
69162;DHT22;56269;51.738;21.652;2023-08-17T06:04:06;25.77;77.70
69162;DHT22;56269;51.738;21.652;2023-08-17T06:06:33;25.93;77.72
69162;DHT22;56269;51.738;21.652;2023-08-17T06:08:59;25.83;77.38
69162;DHT22;56269;51.738;21.652;2023-08-17T06:11:26;25.58;78.56
69162;DHT22;56269;51.738;21.652;2023-08-17T06:13:52;25.89;78.44
69162;DHT22;56269;51.738;21.652;2023-08-17T06:16:18;26.14;77.45
69162;DHT22;56269;51.738;21.652;2023-08-17T06:18:44;26.02;77.36
69162;DHT22;56269;51.738;21.652;2023-08-17T06:21:10;26.32;76.73
69162;DHT22;56269;51.738;21.652;2023-08-17T06:23:37;26.76;75.58
69162;DHT22;56269;51.738;21.652;2023-08-17T06:26:04;27.04;74.05
69162;DHT22;56269;51.738;21.652;2023-08-17T06:28:31;27.58;73.91
69162;DHT22;56269;51.738;21.652;2023-08-17T06:30:57;27.88;72.53
69162;DHT22;56269;51.738;21.652;2023-08-17T06:33:23;27.24;73.21
69162;DHT22;56269;51.738;21.652;2023-08-17T06:35:50;27.09;73.74
69162;DHT22;56269;51.738;21.652;2023-08-17T06:38:16;27.10;73.81
69162;DHT22;56269;51.738;21.652;2023-08-17T06:40:42;27.49;73.57
69162;DHT22;56269;51.738;21.652;2023-08-17T06:43:08;28.01;71.32
69162;DHT22;56269;51.738;21.652;2023-08-17T06:45:35;28.46;69.83
69162;DHT22;56269;51.738;21.652;2023-08-17T06:48:01;28.36;70.51
69162;DHT22;56269;51.738;21.652;2023-08-17T06:50:27;29.03;70.34
69162;DHT22;56269;51.738;21.652;2023-08-17T06:52:54;29.02;68.52
69162;DHT22;56269;51.738;21.652;2023-08-17T06:55:20;29.39;67.76
69162;DHT22;56269;51.738;21.652;2023-08-17T06:57:47;29.23;67.72
69162;DHT22;56269;51.738;21.652;2023-08-17T07:00:15;29.13;66.76
69162;DHT22;56269;51.738;21.652;2023-08-17T07:02:41;29.23;66.58
69162;DHT22;56269;51.738;21.652;2023-08-17T07:05:08;29.37;67.68
69162;DHT22;56269;51.738;21.652;2023-08-17T07:07:34;28.99;67.33
69162;DHT22;56269;51.738;21.652;2023-08-17T07:10:00;29.08;65.97
69162;DHT22;56269;51.738;21.652;2023-08-17T07:12:27;28.96;65.50
69162;DHT22;56269;51.738;21.652;2023-08-17T07:14:54;29.10;65.67
69162;DHT22;56269;51.738;21.652;2023-08-17T07:17:20;29.24;64.58
69162;DHT22;56269;51.738;21.652;2023-08-17T07:19:48;30.01;64.66
69162;DHT22;56269;51.738;21.652;2023-08-17T07:22:14;29.65;64.56
69162;DHT22;56269;51.738;21.652;2023-08-17T07:24:42;29.21;65.55
69162;DHT22;56269;51.738;21.652;2023-08-17T07:27:09;28.83;65.93
69162;DHT22;56269;51.738;21.652;2023-08-17T07:29:35;28.73;65.04
69162;DHT22;56269;51.738;21.652;2023-08-17T07:32:02;28.79;66.01
69162;DHT22;56269;51.738;21.652;2023-08-17T07:34:28;29.38;66.46
69162;DHT22;56269;51.738;21.652;2023-08-17T07:36:57;29.51;64.27
69162;DHT22;56269;51.738;21.652;2023-08-17T07:39:23;29.90;63.64
69162;DHT22;56269;51.738;21.652;2023-08-17T07:41:49;30.39;64.08
69162;DHT22;56269;51.738;21.652;2023-08-17T07:44:16;30.47;62.20
69162;DHT22;56269;51.738;21.652;2023-08-17T07:46:42;30.44;62.46
69162;DHT22;56269;51.738;21.652;2023-08-17T07:49:08;30.48;62.36
69162;DHT22;56269;51.738;21.652;2023-08-17T07:51:34;30.41;62.12
69162;DHT22;56269;51.738;21.652;2023-08-17T07:54:01;30.25;62.37
69162;DHT22;56269;51.738;21.652;2023-08-17T07:56:27;30.63;62.07
69162;DHT22;56269;51.738;21.652;2023-08-17T07:58:53;30.71;60.94
69162;DHT22;56269;51.738;21.652;2023-08-17T08:01:20;30.87;60.81
69162;DHT22;56269;51.738;21.652;2023-08-17T08:03:46;31.31;59.70
69162;DHT22;56269;51.738;21.652;2023-08-17T08:06:12;31.39;60.51
69162;DHT22;56269;51.738;21.652;2023-08-17T08:08:40;31.48;59.26
69162;DHT22;56269;51.738;21.652;2023-08-17T08:11:06;31.25;59.50
69162;DHT22;56269;51.738;21.652;2023-08-17T08:13:32;31.68;59.93
69162;DHT22;56269;51.738;21.652;2023-08-17T08:15:58;31.62;58.49
69162;DHT22;56269;51.738;21.652;2023-08-17T08:18:25;31.80;59.18
69162;DHT22;56269;51.738;21.652;2023-08-17T08:20:51;31.80;57.31
69162;DHT22;56269;51.738;21.652;2023-08-17T08:23:17;31.52;57.30
69162;DHT22;56269;51.738;21.652;2023-08-17T08:25:44;31.50;55.52
69162;DHT22;56269;51.738;21.652;2023-08-17T08:28:10;31.80;55.72
69162;DHT22;56269;51.738;21.652;2023-08-17T08:30:36;31.75;56.16
69162;DHT22;56269;51.738;21.652;2023-08-17T08:33:02;32.44;55.78
69162;DHT22;56269;51.738;21.652;2023-08-17T08:35:29;32.45;53.99
69162;DHT22;56269;51.738;21.652;2023-08-17T08:37:55;33.15;53.93
69162;DHT22;56269;51.738;21.652;2023-08-17T08:40:27;32.61;53.11
69162;DHT22;56269;51.738;21.652;2023-08-17T08:42:54;32.12;54.18
69162;DHT22;56269;51.738;21.652;2023-08-17T08:45:21;32.45;53.52
69162;DHT22;56269;51.738;21.652;2023-08-17T08:47:49;32.64;54.30
69162;DHT22;56269;51.738;21.652;2023-08-17T08:50:20;33.11;54.59
69162;DHT22;56269;51.738;21.652;2023-08-17T08:52:59;33.33;53.97
69162;DHT22;56269;51.738;21.652;2023-08-17T08:55:30;33.89;51.61
69162;DHT22;56269;51.738;21.652;2023-08-17T08:57:59;33.49;50.48
69162;DHT22;56269;51.738;21.652;2023-08-17T09:00:25;33.41;50.90
69162;DHT22;56269;51.738;21.652;2023-08-17T09:02:53;33.77;51.74
69162;DHT22;56269;51.738;21.652;2023-08-17T09:05:21;34.03;51.27
69162;DHT22;56269;51.738;21.652;2023-08-17T09:07:52;33.92;50.93
69162;DHT22;56269;51.738;21.652;2023-08-17T09:10:18;34.28;48.59
69162;DHT22;56269;51.738;21.652;2023-08-17T09:12:46;34.09;48.14
69162;DHT22;56269;51.738;21.652;2023-08-17T09:15:13;33.80;46.45
69162;DHT22;56269;51.738;21.652;2023-08-17T09:17:39;33.96;47.54
69162;DHT22;56269;51.738;21.652;2023-08-17T09:20:06;33.80;47.13
69162;DHT22;56269;51.738;21.652;2023-08-17T09:22:38;33.92;46.46
69162;DHT22;56269;51.738;21.652;2023-08-17T09:25:08;34.19;46.28
69162;DHT22;56269;51.738;21.652;2023-08-17T09:27:36;34.01;47.61
69162;DHT22;56269;51.738;21.652;2023-08-17T09:30:09;34.52;46.88
69162;DHT22;56269;51.738;21.652;2023-08-17T09:32:37;35.11;45.59
69162;DHT22;56269;51.738;21.652;2023-08-17T09:35:04;35.70;44.23
69162;DHT22;56269;51.738;21.652;2023-08-17T09:37:32;36.21;42.84
69162;DHT22;56269;51.738;21.652;2023-08-17T09:39:58;36.27;41.50
69162;DHT22;56269;51.738;21.652;2023-08-17T09:42:26;36.45;43.03
69162;DHT22;56269;51.738;21.652;2023-08-17T09:44:53;36.10;42.13
69162;DHT22;56269;51.738;21.652;2023-08-17T09:47:20;35.49;41.91
69162;DHT22;56269;51.738;21.652;2023-08-17T09:49:49;35.23;42.22
69162;DHT22;56269;51.738;21.652;2023-08-17T09:52:16;35.19;44.02
69162;DHT22;56269;51.738;21.652;2023-08-17T09:54:43;35.03;42.55
69162;DHT22;56269;51.738;21.652;2023-08-17T09:57:12;35.49;43.30
69162;DHT22;56269;51.738;21.652;2023-08-17T09:59:38;34.99;42.67
69162;DHT22;56269;51.738;21.652;2023-08-17T10:02:15;36.24;41.62
69162;DHT22;56269;51.738;21.652;2023-08-17T10:04:49;36.61;41.96
69162;DHT22;56269;51.738;21.652;2023-08-17T10:07:19;35.81;40.80
69162;DHT22;56269;51.738;21.652;2023-08-17T10:09:52;35.81;41.22
69162;DHT22;56269;51.738;21.652;2023-08-17T10:12:23;35.64;42.16
69162;DHT22;56269;51.738;21.652;2023-08-17T10:14:59;36.19;42.09
69162;DHT22;56269;51.738;21.652;2023-08-17T10:17:34;36.32;41.38
69162;DHT22;56269;51.738;21.652;2023-08-17T10:20:00;35.35;41.79
69162;DHT22;56269;51.738;21.652;2023-08-17T10:22:34;36.32;40.22
69162;DHT22;56269;51.738;21.652;2023-08-17T10:25:05;35.59;42.55
69162;DHT22;56269;51.738;21.652;2023-08-17T10:27:35;35.64;43.01
69162;DHT22;56269;51.738;21.652;2023-08-17T10:30:01;35.21;43.00
69162;DHT22;56269;51.738;21.652;2023-08-17T10:32:28;35.50;43.56
69162;DHT22;56269;51.738;21.652;2023-08-17T10:34:54;35.72;43.20
69162;DHT22;56269;51.738;21.652;2023-08-17T10:37:22;36.00;41.92
69162;DHT22;56269;51.738;21.652;2023-08-17T10:39:50;35.83;41.88
69162;DHT22;56269;51.738;21.652;2023-08-17T10:42:53;35.42;42.93
69162;DHT22;56269;51.738;21.652;2023-08-17T10:45:25;34.36;44.72
69162;DHT22;56269;51.738;21.652;2023-08-17T10:50:35;33.63;47.97
69162;DHT22;56269;51.738;21.652;2023-08-17T10:53:10;33.58;47.32
69162;DHT22;56269;51.738;21.652;2023-08-17T10:55:41;33.68;48.92
69162;DHT22;56269;51.738;21.652;2023-08-17T10:58:08;33.58;47.83
69162;DHT22;56269;51.738;21.652;2023-08-17T11:00:35;33.30;48.63
69162;DHT22;56269;51.738;21.652;2023-08-17T11:03:07;33.02;49.29
69162;DHT22;56269;51.738;21.652;2023-08-17T11:05:41;32.72;49.58
69162;DHT22;56269;51.738;21.652;2023-08-17T11:08:10;32.57;50.00
69162;DHT22;56269;51.738;21.652;2023-08-17T11:10:39;33.01;52.77
69162;DHT22;56269;51.738;21.652;2023-08-17T11:13:05;33.32;49.55
69162;DHT22;56269;51.738;21.652;2023-08-17T11:15:40;33.38;49.55
69162;DHT22;56269;51.738;21.652;2023-08-17T11:18:11;33.04;49.75
69162;DHT22;56269;51.738;21.652;2023-08-17T11:20:40;32.68;48.53
69162;DHT22;56269;51.738;21.652;2023-08-17T11:23:08;33.08;49.81
69162;DHT22;56269;51.738;21.652;2023-08-17T11:25:34;33.58;48.21
69162;DHT22;56269;51.738;21.652;2023-08-17T11:28:01;33.83;47.35
69162;DHT22;56269;51.738;21.652;2023-08-17T11:30:29;33.86;46.02
69162;DHT22;56269;51.738;21.652;2023-08-17T11:32:56;33.26;46.30
69162;DHT22;56269;51.738;21.652;2023-08-17T11:35:22;32.91;47.42
69162;DHT22;56269;51.738;21.652;2023-08-17T11:37:49;32.80;48.10
69162;DHT22;56269;51.738;21.652;2023-08-17T11:40:15;32.61;48.28
69162;DHT22;56269;51.738;21.652;2023-08-17T11:42:43;32.47;50.11
69162;DHT22;56269;51.738;21.652;2023-08-17T11:45:09;32.63;51.11
69162;DHT22;56269;51.738;21.652;2023-08-17T11:47:37;32.33;49.18
69162;DHT22;56269;51.738;21.652;2023-08-17T11:50:04;32.47;50.08
69162;DHT22;56269;51.738;21.652;2023-08-17T11:52:31;31.96;50.59
69162;DHT22;56269;51.738;21.652;2023-08-17T11:55:03;31.89;50.28
69162;DHT22;56269;51.738;21.652;2023-08-17T11:57:32;31.69;50.99
69162;DHT22;56269;51.738;21.652;2023-08-17T11:59:59;31.72;51.52
69162;DHT22;56269;51.738;21.652;2023-08-17T12:02:26;31.69;50.64
69162;DHT22;56269;51.738;21.652;2023-08-17T12:04:54;31.72;50.41
69162;DHT22;56269;51.738;21.652;2023-08-17T12:07:23;31.89;51.80
69162;DHT22;56269;51.738;21.652;2023-08-17T12:09:51;32.03;50.98
69162;DHT22;56269;51.738;21.652;2023-08-17T12:12:21;32.31;50.46
69162;DHT22;56269;51.738;21.652;2023-08-17T12:14:48;32.65;50.25
69162;DHT22;56269;51.738;21.652;2023-08-17T12:19:42;32.51;50.72
69162;DHT22;56269;51.738;21.652;2023-08-17T12:22:08;32.34;50.23
69162;DHT22;56269;51.738;21.652;2023-08-17T12:24:34;32.21;50.51
69162;DHT22;56269;51.738;21.652;2023-08-17T12:27:02;32.29;52.69
69162;DHT22;56269;51.738;21.652;2023-08-17T12:29:29;32.17;50.14
69162;DHT22;56269;51.738;21.652;2023-08-17T12:32:01;32.16;51.30
69162;DHT22;56269;51.738;21.652;2023-08-17T12:34:27;32.23;51.62
69162;DHT22;56269;51.738;21.652;2023-08-17T12:36:53;32.17;50.20
69162;DHT22;56269;51.738;21.652;2023-08-17T12:39:19;31.90;49.88
69162;DHT22;56269;51.738;21.652;2023-08-17T12:41:45;31.85;52.71
69162;DHT22;56269;51.738;21.652;2023-08-17T12:44:11;31.75;51.63
69162;DHT22;56269;51.738;21.652;2023-08-17T12:46:41;31.68;51.88
69162;DHT22;56269;51.738;21.652;2023-08-17T12:49:06;31.41;51.98
69162;DHT22;56269;51.738;21.652;2023-08-17T12:51:33;31.41;53.28
69162;DHT22;56269;51.738;21.652;2023-08-17T12:54:01;31.52;52.83
69162;DHT22;56269;51.738;21.652;2023-08-17T12:56:27;31.57;52.35
69162;DHT22;56269;51.738;21.652;2023-08-17T12:58:53;31.48;51.90
69162;DHT22;56269;51.738;21.652;2023-08-17T13:01:19;31.70;52.66
69162;DHT22;56269;51.738;21.652;2023-08-17T13:03:45;31.94;54.21
69162;DHT22;56269;51.738;21.652;2023-08-17T13:06:11;32.02;53.06
69162;DHT22;56269;51.738;21.652;2023-08-17T13:08:37;32.10;53.46
69162;DHT22;56269;51.738;21.652;2023-08-17T13:11:04;32.30;54.58
69162;DHT22;56269;51.738;21.652;2023-08-17T13:13:30;32.39;53.04
69162;DHT22;56269;51.738;21.652;2023-08-17T13:15:56;32.45;52.98
69162;DHT22;56269;51.738;21.652;2023-08-17T13:18:22;32.80;49.25
69162;DHT22;56269;51.738;21.652;2023-08-17T13:20:48;32.80;50.13
69162;DHT22;56269;51.738;21.652;2023-08-17T13:23:14;32.82;50.86
69162;DHT22;56269;51.738;21.652;2023-08-17T13:25:40;33.33;50.93
69162;DHT22;56269;51.738;21.652;2023-08-17T13:28:06;33.70;48.30
69162;DHT22;56269;51.738;21.652;2023-08-17T13:30:33;34.28;46.23
69162;DHT22;56269;51.738;21.652;2023-08-17T13:32:59;35.09;45.73
69162;DHT22;56269;51.738;21.652;2023-08-17T13:35:25;35.45;43.23
69162;DHT22;56269;51.738;21.652;2023-08-17T13:37:54;35.50;44.03
69162;DHT22;56269;51.738;21.652;2023-08-17T13:40:21;35.91;43.40
69162;DHT22;56269;51.738;21.652;2023-08-17T13:42:47;35.38;42.89
69162;DHT22;56269;51.738;21.652;2023-08-17T13:45:13;35.45;43.07
69162;DHT22;56269;51.738;21.652;2023-08-17T13:47:39;35.38;43.58
69162;DHT22;56269;51.738;21.652;2023-08-17T13:50:06;34.94;44.18
69162;DHT22;56269;51.738;21.652;2023-08-17T13:52:33;34.41;45.05
69162;DHT22;56269;51.738;21.652;2023-08-17T13:54:59;34.13;46.07
69162;DHT22;56269;51.738;21.652;2023-08-17T13:57:25;34.06;45.35
69162;DHT22;56269;51.738;21.652;2023-08-17T13:59:52;34.27;46.19
69162;DHT22;56269;51.738;21.652;2023-08-17T14:02:22;34.27;46.88
69162;DHT22;56269;51.738;21.652;2023-08-17T14:04:49;33.70;47.95
69162;DHT22;56269;51.738;21.652;2023-08-17T14:07:15;33.45;48.42
69162;DHT22;56269;51.738;21.652;2023-08-17T14:09:41;33.46;47.86
69162;DHT22;56269;51.738;21.652;2023-08-17T14:12:08;33.45;49.53
69162;DHT22;56269;51.738;21.652;2023-08-17T14:14:34;33.49;48.19
69162;DHT22;56269;51.738;21.652;2023-08-17T14:17:00;33.21;48.30
69162;DHT22;56269;51.738;21.652;2023-08-17T14:19:28;33.17;47.73
69162;DHT22;56269;51.738;21.652;2023-08-17T14:21:54;32.87;49.81
69162;DHT22;56269;51.738;21.652;2023-08-17T14:24:21;32.56;48.32
69162;DHT22;56269;51.738;21.652;2023-08-17T14:26:47;32.48;49.60
69162;DHT22;56269;51.738;21.652;2023-08-17T14:29:13;32.44;51.19
69162;DHT22;56269;51.738;21.652;2023-08-17T14:31:39;32.27;51.18
69162;DHT22;56269;51.738;21.652;2023-08-17T14:34:05;32.27;50.95
69162;DHT22;56269;51.738;21.652;2023-08-17T14:36:31;31.92;54.97
69162;DHT22;56269;51.738;21.652;2023-08-17T14:38:58;31.86;55.74
69162;DHT22;56269;51.738;21.652;2023-08-17T14:41:24;31.79;55.47
69162;DHT22;56269;51.738;21.652;2023-08-17T14:43:58;31.61;52.82
69162;DHT22;56269;51.738;21.652;2023-08-17T14:46:25;31.41;54.57
69162;DHT22;56269;51.738;21.652;2023-08-17T14:48:51;31.25;57.38
69162;DHT22;56269;51.738;21.652;2023-08-17T14:51:17;31.21;58.29
69162;DHT22;56269;51.738;21.652;2023-08-17T14:53:47;31.08;58.61
69162;DHT22;56269;51.738;21.652;2023-08-17T14:56:13;30.92;59.49
69162;DHT22;56269;51.738;21.652;2023-08-17T14:58:39;30.97;58.83
69162;DHT22;56269;51.738;21.652;2023-08-17T15:01:05;31.11;62.55
69162;DHT22;56269;51.738;21.652;2023-08-17T15:03:32;30.92;63.93
69162;DHT22;56269;51.738;21.652;2023-08-17T15:05:58;31.04;61.05
69162;DHT22;56269;51.738;21.652;2023-08-17T15:08:24;31.04;58.38
69162;DHT22;56269;51.738;21.652;2023-08-17T15:10:52;30.84;65.50
69162;DHT22;56269;51.738;21.652;2023-08-17T15:13:20;30.95;62.68
69162;DHT22;56269;51.738;21.652;2023-08-17T15:15:46;30.95;64.43
69162;DHT22;56269;51.738;21.652;2023-08-17T15:18:12;30.67;66.09
69162;DHT22;56269;51.738;21.652;2023-08-17T15:20:38;30.26;64.55
69162;DHT22;56269;51.738;21.652;2023-08-17T15:23:04;30.22;63.87